createdAt,value
2023-10-04T00:01:42.990Z,81.05
2023-10-04T00:04:14.283Z,81.27
2023-10-04T00:06:44.836Z,81.00
2023-10-04T00:09:16.023Z,81.69
2023-10-04T00:11:46.683Z,81.55
2023-10-04T00:14:17.222Z,81.06
2023-10-04T00:16:47.828Z,81.49
2023-10-04T00:19:20.023Z,81.47
2023-10-04T00:21:50.891Z,80.80
2023-10-04T00:24:21.903Z,80.73
2023-10-04T00:26:52.629Z,81.02
2023-10-04T00:29:24.383Z,80.67
2023-10-04T00:31:55.098Z,80.95
2023-10-04T00:34:27.257Z,80.90
2023-10-04T00:36:58.002Z,81.24
2023-10-04T00:39:28.764Z,81.44
2023-10-04T00:41:59.650Z,81.41
2023-10-04T00:44:31.955Z,81.75
2023-10-04T00:47:03.418Z,81.92
2023-10-04T00:49:35.334Z,82.03
2023-10-04T00:52:06.412Z,82.18
2023-10-04T00:54:37.033Z,82.13
2023-10-04T00:57:11.202Z,82.09
2023-10-04T00:59:44.093Z,82.20
2023-10-04T01:02:14.863Z,82.23
2023-10-04T01:04:45.621Z,82.39
2023-10-04T01:07:17.657Z,82.44
2023-10-04T01:09:48.277Z,82.81
2023-10-04T01:12:24.843Z,82.64
2023-10-04T01:14:55.612Z,82.89
2023-10-04T01:17:27.881Z,82.87
2023-10-04T01:19:58.556Z,82.76
2023-10-04T01:22:29.364Z,82.76
2023-10-04T01:25:01.205Z,83.19
2023-10-04T01:27:32.793Z,83.36
2023-10-04T01:30:03.953Z,83.46
2023-10-04T01:32:35.725Z,83.70
2023-10-04T01:35:06.994Z,83.59
2023-10-04T01:37:39.239Z,83.57
2023-10-04T01:40:13.990Z,83.77
2023-10-04T01:42:47.086Z,83.59
2023-10-04T01:45:19.557Z,83.26
2023-10-04T01:47:52.852Z,83.62
2023-10-04T01:50:25.118Z,83.60
2023-10-04T01:52:55.904Z,83.62
2023-10-04T01:55:27.455Z,83.38
2023-10-04T01:57:58.108Z,83.25
2023-10-04T02:00:29.809Z,83.80
2023-10-04T02:03:02.528Z,83.53
2023-10-04T02:05:34.850Z,83.67
2023-10-04T02:08:11.457Z,83.44
2023-10-04T02:10:46.759Z,83.74
2023-10-04T02:13:17.271Z,83.72
2023-10-04T02:15:50.021Z,83.86
2023-10-04T02:18:22.808Z,83.85
2023-10-04T02:20:55.303Z,83.56
2023-10-04T02:23:25.967Z,83.80
2023-10-04T02:25:56.887Z,83.22
2023-10-04T02:28:27.432Z,82.93
2023-10-04T02:30:58.142Z,82.74
2023-10-04T02:33:30.592Z,82.92
2023-10-04T02:36:02.408Z,83.22
2023-10-04T02:38:34.633Z,82.92
2023-10-04T02:41:07.788Z,83.23
2023-10-04T02:43:39.385Z,82.78
2023-10-04T02:46:11.937Z,82.82
2023-10-04T02:48:43.041Z,83.13
2023-10-04T02:51:14.348Z,82.94
2023-10-04T02:53:45.115Z,83.21
2023-10-04T02:56:23.504Z,83.19
2023-10-04T02:58:54.106Z,83.23
2023-10-04T03:01:26.070Z,83.20
2023-10-04T03:03:56.765Z,83.30
2023-10-04T03:06:28.019Z,83.21
2023-10-04T03:08:58.669Z,83.19
2023-10-04T03:11:29.202Z,83.53
2023-10-04T03:14:01.253Z,83.72
2023-10-04T03:16:32.025Z,83.40
2023-10-04T03:19:03.517Z,83.55
2023-10-04T03:21:35.363Z,83.32
2023-10-04T03:24:11.056Z,83.56
2023-10-04T03:26:41.637Z,83.87
2023-10-04T03:29:12.722Z,83.49
2023-10-04T03:31:43.795Z,83.71
2023-10-04T03:34:14.326Z,84.05
2023-10-04T03:36:46.484Z,83.74
2023-10-04T03:39:17.468Z,84.00
2023-10-04T03:41:51.035Z,83.76
2023-10-04T03:44:21.815Z,83.79
2023-10-04T03:46:53.946Z,83.46
2023-10-04T03:49:26.488Z,83.52
2023-10-04T03:51:57.607Z,83.26
2023-10-04T03:54:29.212Z,83.59
2023-10-04T03:57:01.644Z,83.39
2023-10-04T03:59:32.219Z,83.28
2023-10-04T04:02:04.369Z,83.37
2023-10-04T04:04:35.707Z,83.41
2023-10-04T04:07:06.358Z,83.31
2023-10-04T04:09:37.073Z,83.36
2023-10-04T04:12:08.330Z,83.50
2023-10-04T04:14:39.296Z,83.58
2023-10-04T04:17:10.399Z,83.27
2023-10-04T04:19:40.881Z,83.30
2023-10-04T04:22:11.731Z,83.23
2023-10-04T04:24:42.573Z,83.54
2023-10-04T04:27:16.959Z,83.06
2023-10-04T04:29:59.049Z,83.17
2023-10-04T04:32:30.524Z,83.17
2023-10-04T04:35:02.725Z,83.12
2023-10-04T04:37:34.520Z,83.17
2023-10-04T04:40:07.521Z,83.17
2023-10-04T04:42:39.995Z,83.12
2023-10-04T04:45:12.943Z,82.98
2023-10-04T04:47:46.211Z,82.79
2023-10-04T04:50:18.102Z,82.93
2023-10-04T04:52:48.681Z,82.96
2023-10-04T04:55:19.511Z,82.88
2023-10-04T04:57:50.121Z,83.12
2023-10-04T05:00:33.373Z,82.96
2023-10-04T05:03:05.968Z,83.31
2023-10-04T05:05:36.752Z,83.61
2023-10-04T05:08:08.820Z,83.60
2023-10-04T05:10:40.100Z,83.20
2023-10-04T05:13:12.449Z,83.43
2023-10-04T05:15:43.949Z,83.36
2023-10-04T05:18:19.182Z,83.15
2023-10-04T05:20:53.494Z,83.19
2023-10-04T05:23:26.105Z,83.00
2023-10-04T05:25:56.949Z,82.57
2023-10-04T05:28:30.476Z,82.34
2023-10-04T05:31:01.077Z,82.26
2023-10-04T05:33:32.469Z,82.44
2023-10-04T05:36:04.412Z,82.14
2023-10-04T05:38:36.425Z,82.42
2023-10-04T05:41:07.238Z,81.84
2023-10-04T05:43:37.786Z,81.75
2023-10-04T05:46:08.619Z,81.72
2023-10-04T05:48:39.432Z,81.26
2023-10-04T05:51:11.534Z,81.32
2023-10-04T05:53:42.264Z,81.62
2023-10-04T05:56:12.821Z,81.31
2023-10-04T05:58:44.374Z,81.09
2023-10-04T06:01:21.038Z,80.86
2023-10-04T06:03:51.714Z,80.39
2023-10-04T06:06:22.240Z,80.18
2023-10-04T06:08:56.661Z,80.31
2023-10-04T06:11:27.371Z,80.09
2023-10-04T06:13:58.571Z,79.79
2023-10-04T06:16:29.560Z,79.71
2023-10-04T06:19:07.652Z,79.85
2023-10-04T06:21:34.560Z,79.79
2023-10-04T06:24:05.703Z,79.56
2023-10-04T06:26:37.097Z,79.42
2023-10-04T06:29:08.288Z,79.03
2023-10-04T06:31:38.905Z,79.08
2023-10-04T06:34:10.124Z,79.00
2023-10-04T06:36:40.691Z,78.27
2023-10-04T06:39:13.911Z,78.40
2023-10-04T06:41:44.886Z,78.43
2023-10-04T06:44:15.405Z,77.21
2023-10-04T06:46:48.769Z,76.94
2023-10-04T06:49:19.555Z,75.60
2023-10-04T06:51:50.452Z,75.20
2023-10-04T06:54:21.094Z,75.61
2023-10-04T06:56:52.877Z,75.54
2023-10-04T06:59:23.536Z,75.50
2023-10-04T07:01:54.131Z,75.81
2023-10-04T07:04:25.180Z,76.24
2023-10-04T07:06:59.011Z,75.92
2023-10-04T07:09:29.806Z,76.24
2023-10-04T07:12:00.514Z,76.10
2023-10-04T07:14:34.349Z,75.76
2023-10-04T07:17:05.291Z,75.75
2023-10-04T07:19:37.530Z,75.93
2023-10-04T07:22:08.619Z,76.18
2023-10-04T07:24:39.334Z,75.82
2023-10-04T07:27:12.606Z,75.48
2023-10-04T07:29:43.134Z,75.12
2023-10-04T07:32:14.525Z,75.64
2023-10-04T07:34:45.277Z,75.68
2023-10-04T07:37:16.509Z,75.55
2023-10-04T07:39:47.016Z,74.92
2023-10-04T07:42:18.748Z,75.80
2023-10-04T07:44:50.276Z,75.72
2023-10-04T07:47:21.085Z,75.77
2023-10-04T07:49:51.839Z,76.23
2023-10-04T07:52:22.435Z,75.52
2023-10-04T07:54:54.613Z,75.07
2023-10-04T07:57:26.037Z,76.12
2023-10-04T07:59:56.692Z,75.51
2023-10-04T08:02:27.286Z,74.94
2023-10-04T08:04:58.120Z,75.05
2023-10-04T08:07:28.688Z,73.84
2023-10-04T08:09:59.696Z,73.01
2023-10-04T08:12:31.340Z,73.09
2023-10-04T08:15:03.783Z,72.90
2023-10-04T08:17:34.606Z,70.99
2023-10-04T08:20:06.128Z,71.66
2023-10-04T08:22:36.696Z,71.93
2023-10-04T08:25:08.211Z,71.76
2023-10-04T08:27:40.448Z,71.66
2023-10-04T08:30:13.551Z,71.48
2023-10-04T08:32:49.188Z,72.00
2023-10-04T08:35:32.790Z,71.86
2023-10-04T08:38:05.564Z,71.92
2023-10-04T08:40:40.351Z,71.59
2023-10-04T08:43:12.519Z,71.25
2023-10-04T08:45:44.358Z,70.58
2023-10-04T08:48:15.805Z,70.32
2023-10-04T08:50:52.094Z,70.49
2023-10-04T08:53:51.353Z,71.78
2023-10-04T08:56:23.192Z,70.81
2023-10-04T08:58:55.411Z,70.45
2023-10-04T09:01:26.754Z,70.49
2023-10-04T09:03:59.339Z,70.40
2023-10-04T09:06:30.825Z,69.77
2023-10-04T09:09:02.037Z,70.61
2023-10-04T09:11:33.608Z,69.93
2023-10-04T09:14:05.531Z,69.83
2023-10-04T09:16:36.573Z,70.60
2023-10-04T09:19:14.225Z,70.07
2023-10-04T09:21:50.996Z,70.28
2023-10-04T09:24:23.565Z,69.92
2023-10-04T09:26:56.145Z,69.83
2023-10-04T09:29:36.472Z,69.61
2023-10-04T09:32:08.575Z,69.74
2023-10-04T09:34:39.079Z,69.96
2023-10-04T09:37:19.721Z,69.45
2023-10-04T09:39:51.197Z,69.05
2023-10-04T09:42:23.631Z,69.15
2023-10-04T09:44:58.560Z,68.57
2023-10-04T09:47:32.065Z,69.61
2023-10-04T09:50:02.812Z,70.03
2023-10-04T09:52:33.502Z,69.19
2023-10-04T09:55:05.791Z,69.78
2023-10-04T09:57:39.258Z,69.10
2023-10-04T10:00:13.948Z,68.20
2023-10-04T10:02:50.809Z,67.98
2023-10-04T10:05:30.268Z,67.52
2023-10-04T10:08:05.678Z,67.86
2023-10-04T10:10:39.874Z,68.93
2023-10-04T10:13:14.517Z,68.92
2023-10-04T10:15:45.574Z,68.89
2023-10-04T10:18:18.581Z,68.58
2023-10-04T10:20:51.327Z,68.20
2023-10-04T10:23:22.316Z,67.97
2023-10-04T10:26:18.960Z,67.77
2023-10-04T10:28:51.961Z,67.81
2023-10-04T10:31:23.365Z,67.60
2023-10-04T10:33:58.667Z,68.07
2023-10-04T10:36:29.469Z,67.96
2023-10-04T10:39:00.847Z,67.99
2023-10-04T10:41:35.845Z,68.59
2023-10-04T10:44:24.972Z,67.82
2023-10-04T10:47:10.585Z,69.73
2023-10-04T10:49:43.966Z,69.32
2023-10-04T10:52:35.397Z,67.89
2023-10-04T10:55:08.562Z,67.69
2023-10-04T10:57:39.441Z,66.72
2023-10-04T11:00:22.240Z,66.28
2023-10-04T11:02:55.549Z,66.28
2023-10-04T11:05:27.613Z,65.39
2023-10-04T11:07:58.881Z,64.77
2023-10-04T11:10:31.097Z,64.31
2023-10-04T11:13:03.587Z,64.21
2023-10-04T11:15:34.311Z,64.38
2023-10-04T11:18:07.473Z,65.79
2023-10-04T11:20:40.151Z,65.81
2023-10-04T11:23:11.939Z,66.22
2023-10-04T11:25:43.780Z,66.86
2023-10-04T11:28:14.545Z,67.73
2023-10-04T11:30:45.262Z,67.72
2023-10-04T11:33:16.544Z,66.97
2023-10-04T11:35:48.570Z,65.68
2023-10-04T11:38:20.628Z,65.14
2023-10-04T11:40:52.539Z,63.63
2023-10-04T11:43:27.968Z,62.78
2023-10-04T11:46:01.850Z,63.38
2023-10-04T11:48:34.478Z,63.77
2023-10-04T11:51:07.973Z,63.20
2023-10-04T11:53:46.809Z,64.31
2023-10-04T11:56:17.452Z,64.89
2023-10-04T11:58:54.532Z,65.14
2023-10-04T12:01:27.908Z,65.18
2023-10-04T12:03:58.453Z,65.34
2023-10-04T12:06:34.554Z,66.15
2023-10-04T12:09:09.316Z,66.63
2023-10-04T12:11:40.910Z,68.21
2023-10-04T12:14:11.490Z,68.52
2023-10-04T12:16:43.629Z,68.90
2023-10-04T12:19:14.547Z,70.65
2023-10-04T12:21:46.057Z,70.58
2023-10-04T12:24:17.797Z,70.75
2023-10-04T12:26:48.285Z,70.95
2023-10-04T12:29:18.886Z,71.11
2023-10-04T12:31:51.021Z,70.75
2023-10-04T12:34:23.229Z,70.60
2023-10-04T12:36:56.132Z,71.20
2023-10-04T12:39:28.065Z,71.70
2023-10-04T12:42:00.267Z,73.58
2023-10-04T12:44:30.724Z,72.81
2023-10-04T12:47:01.372Z,73.22
2023-10-04T12:49:32.004Z,72.18
2023-10-04T12:52:05.077Z,71.51
2023-10-04T12:54:35.779Z,71.32
2023-10-04T12:57:06.380Z,71.07
2023-10-04T12:59:37.087Z,71.64
2023-10-04T13:02:08.057Z,71.37
2023-10-04T13:04:39.809Z,71.48
2023-10-04T13:07:11.241Z,70.12
2023-10-04T13:09:56.114Z,68.30
2023-10-04T13:12:17.192Z,68.60
2023-10-04T13:14:47.753Z,66.44
2023-10-04T13:17:19.758Z,65.44
2023-10-04T13:19:50.435Z,65.11
2023-10-04T13:22:22.619Z,64.04
2023-10-04T13:24:56.448Z,64.67
2023-10-04T13:27:26.345Z,64.62
2023-10-04T13:29:56.883Z,64.42
2023-10-04T13:32:28.956Z,64.82
2023-10-04T13:35:02.333Z,64.98
2023-10-04T13:37:32.930Z,65.24
2023-10-04T13:40:05.926Z,65.02
2023-10-04T13:42:36.998Z,64.63
2023-10-04T13:45:10.174Z,65.08
2023-10-04T13:47:42.730Z,64.24
2023-10-04T13:50:14.512Z,63.63
2023-10-04T13:52:46.863Z,62.77
2023-10-04T13:55:17.554Z,61.77
2023-10-04T13:57:49.292Z,61.65
2023-10-04T14:00:25.985Z,61.69
2023-10-04T14:02:58.981Z,60.90
2023-10-04T14:05:31.633Z,61.40
2023-10-04T14:08:04.924Z,61.60
2023-10-04T14:10:35.465Z,61.62
2023-10-04T14:13:08.300Z,62.46
2023-10-04T14:15:38.972Z,63.94
2023-10-04T14:18:10.909Z,63.95
2023-10-04T14:20:42.797Z,64.64
2023-10-04T14:23:13.426Z,63.78
2023-10-04T14:25:44.046Z,63.32
2023-10-04T14:28:20.341Z,63.33
2023-10-04T14:30:59.051Z,63.56
2023-10-04T14:33:32.886Z,63.04
2023-10-04T14:36:03.419Z,62.60
2023-10-04T14:38:34.537Z,61.83
2023-10-04T14:41:05.859Z,61.86
2023-10-04T14:43:37.239Z,61.46
2023-10-04T14:46:09.581Z,61.92
2023-10-04T14:48:43.676Z,62.38
2023-10-04T14:51:13.912Z,62.79
2023-10-04T14:53:44.600Z,64.22
2023-10-04T14:56:15.199Z,63.79
2023-10-04T14:58:45.761Z,64.63
2023-10-04T15:01:18.532Z,64.91
2023-10-04T15:03:51.046Z,65.36
2023-10-04T15:06:23.794Z,65.50
2023-10-04T15:08:58.447Z,65.79
2023-10-04T15:11:34.460Z,66.30
2023-10-04T15:14:07.074Z,65.83
2023-10-04T15:16:37.920Z,66.22
2023-10-04T15:19:09.093Z,66.52
2023-10-04T15:21:41.844Z,66.69
2023-10-04T15:24:14.290Z,66.82
2023-10-04T15:26:46.774Z,67.16
2023-10-04T15:29:18.136Z,67.43
2023-10-04T15:31:50.685Z,67.31
2023-10-04T15:34:21.324Z,67.63
2023-10-04T15:36:52.117Z,67.71
2023-10-04T15:39:24.209Z,68.00
2023-10-04T15:41:56.747Z,68.12
2023-10-04T15:44:28.106Z,67.63
2023-10-04T15:47:00.326Z,67.98
2023-10-04T15:49:31.002Z,67.96
2023-10-04T15:52:03.086Z,68.22
2023-10-04T15:54:33.769Z,67.38
2023-10-04T15:57:05.090Z,67.91
2023-10-04T15:59:35.827Z,68.17
2023-10-04T16:02:11.974Z,68.29
2023-10-04T16:04:42.695Z,68.09
2023-10-04T16:07:14.475Z,67.81
2023-10-04T16:09:46.616Z,68.22
2023-10-04T16:12:20.317Z,68.65
2023-10-04T16:14:50.915Z,68.95
2023-10-04T16:17:24.573Z,69.02
2023-10-04T16:19:55.914Z,69.10
2023-10-04T16:22:28.427Z,68.94
2023-10-04T16:25:00.385Z,69.14
2023-10-04T16:27:31.775Z,69.25
2023-10-04T16:30:02.693Z,68.78
2023-10-04T16:32:33.991Z,68.74
2023-10-04T16:35:05.866Z,69.03
2023-10-04T16:37:36.584Z,69.28
2023-10-04T16:40:08.513Z,69.04
2023-10-04T16:42:42.221Z,68.97
2023-10-04T16:45:19.628Z,68.75
2023-10-04T16:47:51.090Z,68.98
2023-10-04T16:50:26.468Z,68.85
2023-10-04T16:52:57.198Z,69.22
2023-10-04T16:55:28.902Z,69.16
2023-10-04T16:57:59.675Z,69.43
2023-10-04T17:00:32.444Z,69.55
2023-10-04T17:03:03.604Z,69.72
2023-10-04T17:05:35.573Z,70.22
2023-10-04T17:08:07.639Z,69.91
2023-10-04T17:10:46.822Z,69.70
2023-10-04T17:13:17.680Z,69.70
2023-10-04T17:15:49.005Z,70.11
2023-10-04T17:18:19.883Z,69.90
2023-10-04T17:20:53.070Z,69.90
2023-10-04T17:23:23.659Z,69.89
2023-10-04T17:25:54.629Z,69.72
2023-10-04T17:28:26.389Z,69.79
2023-10-04T17:30:57.752Z,69.88
2023-10-04T17:33:29.991Z,69.83
2023-10-04T17:36:01.026Z,70.10
2023-10-04T17:38:31.977Z,70.36
2023-10-04T17:41:02.922Z,70.13
2023-10-04T17:43:36.651Z,70.50
2023-10-04T17:46:08.586Z,70.30
2023-10-04T17:48:42.305Z,70.31
2023-10-04T17:51:14.560Z,70.16
2023-10-04T17:53:48.119Z,69.72
2023-10-04T17:56:21.707Z,69.55
2023-10-04T17:58:52.764Z,70.21
2023-10-04T18:01:23.622Z,69.95
2023-10-04T18:03:54.534Z,69.90
2023-10-04T18:06:26.786Z,70.23
2023-10-04T18:08:57.381Z,70.47
2023-10-04T18:11:28.702Z,70.78
2023-10-04T18:13:59.615Z,70.79
2023-10-04T18:16:31.860Z,70.84
2023-10-04T18:19:03.486Z,71.16
2023-10-04T18:21:34.352Z,71.07
2023-10-04T18:24:06.811Z,71.26
2023-10-04T18:26:39.639Z,71.00
2023-10-04T18:29:11.924Z,71.38
2023-10-04T18:31:42.851Z,70.55
2023-10-04T18:34:13.802Z,70.80
2023-10-04T18:36:46.153Z,70.22
2023-10-04T18:39:18.918Z,70.22
2023-10-04T18:41:49.644Z,69.52
2023-10-04T18:44:21.894Z,69.92
2023-10-04T18:46:53.763Z,69.80
2023-10-04T18:49:25.372Z,69.92
2023-10-04T18:51:56.711Z,69.53
2023-10-04T18:54:27.427Z,69.65
2023-10-04T18:56:58.115Z,69.10
2023-10-04T18:59:33.004Z,69.12
2023-10-04T19:02:03.823Z,68.96
2023-10-04T19:04:35.202Z,69.25
2023-10-04T19:07:12.308Z,69.27
2023-10-04T19:09:43.546Z,69.43
2023-10-04T19:12:15.147Z,69.25
2023-10-04T19:14:45.742Z,69.08
2023-10-04T19:17:18.011Z,69.25
2023-10-04T19:19:50.306Z,69.43
2023-10-04T19:22:23.160Z,68.96
2023-10-04T19:24:54.715Z,69.19
2023-10-04T19:27:26.634Z,68.98
2023-10-04T19:29:57.504Z,69.09
2023-10-04T19:32:28.470Z,69.30
2023-10-04T19:34:59.046Z,69.03
2023-10-04T19:37:29.982Z,69.59
2023-10-04T19:40:03.213Z,69.69
2023-10-04T19:42:33.434Z,69.77
2023-10-04T19:45:04.670Z,69.84
2023-10-04T19:47:35.734Z,69.75
2023-10-04T19:50:06.957Z,69.79
2023-10-04T19:52:37.684Z,69.89
2023-10-04T19:55:11.457Z,69.72
2023-10-04T19:57:42.745Z,69.48
2023-10-04T20:00:23.922Z,69.53
2023-10-04T20:02:56.869Z,70.03
2023-10-04T20:05:33.984Z,69.90
2023-10-04T20:08:08.917Z,70.09
2023-10-04T20:10:41.786Z,69.90
2023-10-04T20:13:14.081Z,70.05
2023-10-04T20:15:46.466Z,70.08
2023-10-04T20:18:20.080Z,70.16
2023-10-04T20:20:52.181Z,70.40
2023-10-04T20:23:25.269Z,70.37
2023-10-04T20:26:03.220Z,70.29
2023-10-04T20:28:34.585Z,70.66
2023-10-04T20:31:06.045Z,70.88
2023-10-04T20:33:37.333Z,70.73
2023-10-04T20:36:08.444Z,70.88
2023-10-04T20:38:40.806Z,70.54
2023-10-04T20:41:15.292Z,70.43
2023-10-04T20:43:45.804Z,70.66
2023-10-04T20:46:19.261Z,70.73
2023-10-04T20:48:49.924Z,70.85
2023-10-04T20:51:22.551Z,70.71
2023-10-04T20:53:53.329Z,70.86
2023-10-04T20:56:25.790Z,70.80
2023-10-04T20:58:58.083Z,70.88
2023-10-04T21:01:28.812Z,71.29
2023-10-04T21:04:02.717Z,71.43
2023-10-04T21:06:35.094Z,71.05
2023-10-04T21:09:09.432Z,71.38
2023-10-04T21:11:39.930Z,71.68
2023-10-04T21:14:11.213Z,71.80
2023-10-04T21:16:42.444Z,72.40
2023-10-04T21:19:14.880Z,71.75
2023-10-04T21:21:47.465Z,71.85
2023-10-04T21:24:19.436Z,71.50
2023-10-04T21:26:49.999Z,72.07
2023-10-04T21:29:20.603Z,72.11
2023-10-04T21:31:53.098Z,72.02
2023-10-04T21:34:24.761Z,72.59
2023-10-04T21:36:56.038Z,72.95
2023-10-04T21:39:32.524Z,72.94
2023-10-04T21:42:06.513Z,73.23
2023-10-04T21:44:42.290Z,73.46
2023-10-04T21:47:17.440Z,73.48
2023-10-04T21:49:48.441Z,73.55
2023-10-04T21:52:20.746Z,73.85
2023-10-04T21:54:51.754Z,74.37
2023-10-04T21:57:27.915Z,74.44
2023-10-04T22:00:00.600Z,74.78
2023-10-04T22:02:33.345Z,74.22
2023-10-04T22:05:05.629Z,75.27
2023-10-04T22:07:38.612Z,74.91
2023-10-04T22:10:11.871Z,74.82
2023-10-04T22:12:43.230Z,74.84
2023-10-04T22:15:14.680Z,74.89
2023-10-04T22:17:47.266Z,74.98
2023-10-04T22:20:18.339Z,75.03
2023-10-04T22:22:49.665Z,75.16
2023-10-04T22:25:22.563Z,75.31
2023-10-04T22:27:55.547Z,75.51
2023-10-04T22:30:27.881Z,75.68
2023-10-04T22:32:58.605Z,75.56
2023-10-04T22:35:33.792Z,75.54
2023-10-04T22:38:05.575Z,76.00
2023-10-04T22:40:36.149Z,75.91
2023-10-04T22:43:11.635Z,75.65
2023-10-04T22:45:42.507Z,76.03
2023-10-04T22:48:13.730Z,75.96
2023-10-04T22:50:44.538Z,75.94
2023-10-04T22:53:15.309Z,76.06
2023-10-04T22:55:46.393Z,75.84
2023-10-04T22:58:18.762Z,76.05
2023-10-04T23:00:49.864Z,76.26
2023-10-04T23:03:24.464Z,76.42
2023-10-04T23:05:54.537Z,76.56
2023-10-04T23:08:26.053Z,76.37
2023-10-04T23:10:56.913Z,76.35
2023-10-04T23:13:27.683Z,76.72
2023-10-04T23:16:00.487Z,76.62
2023-10-04T23:18:32.958Z,76.89
2023-10-04T23:21:12.579Z,76.98
2023-10-04T23:23:44.867Z,77.06
2023-10-04T23:26:17.272Z,77.35
2023-10-04T23:28:48.367Z,77.04
2023-10-04T23:31:21.387Z,77.39
2023-10-04T23:33:54.022Z,77.70
2023-10-04T23:36:27.699Z,77.72
2023-10-04T23:39:00.030Z,78.19
2023-10-04T23:41:37.612Z,78.07
2023-10-04T23:44:10.473Z,77.89
2023-10-04T23:46:41.602Z,77.77
2023-10-04T23:49:14.123Z,78.08
2023-10-04T23:51:45.004Z,78.32
2023-10-04T23:54:25.421Z,78.05
2023-10-04T23:56:57.600Z,78.24
2023-10-04T23:59:28.936Z,78.26
